createdAt,value
2022-11-14T00:01:13.280Z,101533.00
2022-11-14T00:03:40.524Z,101537.00
2022-11-14T00:06:08.784Z,101533.00
2022-11-14T00:08:36.505Z,101532.00
2022-11-14T00:11:03.988Z,101526.00
2022-11-14T00:13:30.979Z,101525.00
2022-11-14T00:15:57.962Z,101517.00
2022-11-14T00:18:25.131Z,101514.00
2022-11-14T00:20:53.643Z,101517.00
2022-11-14T00:23:22.013Z,101514.00
2022-11-14T00:25:49.465Z,101512.00
2022-11-14T00:28:16.735Z,101515.00
2022-11-14T00:30:48.679Z,101507.00
2022-11-14T00:33:20.132Z,101513.00
2022-11-14T00:35:55.803Z,101511.00
2022-11-14T00:38:23.646Z,101504.00
2022-11-14T00:40:50.748Z,101510.00
2022-11-14T00:43:17.774Z,101497.00
2022-11-14T00:45:46.645Z,101503.00
2022-11-14T00:48:14.537Z,101497.00
2022-11-14T00:50:42.597Z,101499.00
2022-11-14T00:53:09.575Z,101494.00
2022-11-14T00:55:36.592Z,101492.00
2022-11-14T00:58:03.842Z,101507.00
2022-11-14T01:00:31.322Z,101498.00
2022-11-14T01:02:58.409Z,101498.00
2022-11-14T01:05:26.259Z,101498.00
2022-11-14T01:07:54.352Z,101505.00
2022-11-14T01:10:22.417Z,101501.00
2022-11-14T01:12:49.652Z,101493.00
2022-11-14T01:15:16.844Z,101497.00
2022-11-14T01:17:43.775Z,101494.00
2022-11-14T01:20:11.030Z,101490.00
2022-11-14T01:22:37.934Z,101480.00
2022-11-14T01:25:05.418Z,101473.00
2022-11-14T01:27:32.536Z,101476.00
2022-11-14T01:29:59.537Z,101471.00
2022-11-14T01:32:27.636Z,101473.00
2022-11-14T01:34:54.835Z,101467.00
2022-11-14T01:37:22.600Z,101454.00
2022-11-14T01:39:50.196Z,101459.00
2022-11-14T01:42:17.789Z,101467.00
2022-11-14T01:44:50.261Z,101452.00
2022-11-14T01:47:22.772Z,101455.00
2022-11-14T01:49:58.996Z,101453.00
2022-11-14T01:52:36.318Z,101456.00
2022-11-14T01:55:08.658Z,101454.00
2022-11-14T01:57:46.050Z,101453.00
2022-11-14T02:00:14.183Z,101447.00
2022-11-14T02:02:43.284Z,101448.00
2022-11-14T02:05:16.494Z,101444.00
2022-11-14T02:07:43.513Z,101438.00
2022-11-14T02:10:19.075Z,101442.00
2022-11-14T02:12:47.255Z,101432.00
2022-11-14T02:15:15.080Z,101428.00
2022-11-14T02:17:44.252Z,101426.00
2022-11-14T02:20:11.838Z,101425.00
2022-11-14T02:22:43.136Z,101427.00
2022-11-14T02:25:14.921Z,101421.00
2022-11-14T02:27:42.312Z,101420.00
2022-11-14T02:30:16.232Z,101425.00
2022-11-14T02:35:30.247Z,101413.00
2022-11-14T02:37:57.249Z,101417.00
2022-11-14T02:40:24.178Z,101412.00
2022-11-14T02:42:51.147Z,101415.00
2022-11-14T02:45:19.499Z,101419.00
2022-11-14T02:47:46.778Z,101410.00
2022-11-14T02:50:13.923Z,101407.00
2022-11-14T02:52:41.226Z,101413.00
2022-11-14T02:55:09.265Z,101405.00
2022-11-14T02:57:36.381Z,101404.00
2022-11-14T03:00:05.431Z,101397.00
2022-11-14T03:02:34.188Z,101402.00
2022-11-14T03:05:01.157Z,101401.00
2022-11-14T03:07:28.186Z,101397.00
2022-11-14T03:09:55.173Z,101393.00
2022-11-14T03:12:22.151Z,101389.00
2022-11-14T03:14:49.104Z,101388.00
2022-11-14T03:17:16.221Z,101383.00
2022-11-14T03:19:43.164Z,101377.00
2022-11-14T03:22:10.114Z,101382.00
2022-11-14T03:24:37.035Z,101374.00
2022-11-14T03:27:04.127Z,101376.00
2022-11-14T03:29:31.093Z,101378.00
2022-11-14T03:31:57.992Z,101369.00
2022-11-14T03:34:25.056Z,101347.00
2022-11-14T03:36:52.044Z,101359.00
2022-11-14T03:39:19.082Z,101359.00
2022-11-14T03:41:46.114Z,101351.00
2022-11-14T03:44:13.070Z,101358.00
2022-11-14T03:46:40.013Z,101360.00
2022-11-14T03:49:07.079Z,101346.00
2022-11-14T03:51:34.019Z,101363.00
2022-11-14T03:54:01.090Z,101352.00
2022-11-14T04:09:04.869Z,101352.00
2022-11-14T04:11:33.049Z,101339.00
2022-11-14T04:14:02.229Z,101336.00
2022-11-14T04:16:30.493Z,101336.00
2022-11-14T04:19:01.423Z,101342.00
2022-11-14T04:21:31.844Z,101333.00
2022-11-14T04:24:00.204Z,101329.00
2022-11-14T04:26:27.766Z,101332.00
2022-11-14T04:28:56.914Z,101336.00
2022-11-14T04:31:24.691Z,101321.00
2022-11-14T04:33:54.223Z,101328.00
2022-11-14T04:36:22.083Z,101334.00
2022-11-14T04:38:50.404Z,101331.00
2022-11-14T04:41:18.418Z,101329.00
2022-11-14T04:43:50.628Z,101325.00
2022-11-14T04:46:18.882Z,101330.00
2022-11-14T04:48:46.398Z,101335.00
2022-11-14T04:51:15.633Z,101320.00
2022-11-14T04:53:43.993Z,101320.00
2022-11-14T04:56:12.729Z,101316.00
2022-11-14T04:58:40.008Z,101314.00
2022-11-14T05:01:13.251Z,101317.00
2022-11-14T05:03:40.640Z,101322.00
2022-11-14T05:06:11.303Z,101315.00
2022-11-14T05:08:38.856Z,101311.00
2022-11-14T05:11:06.556Z,101311.00
2022-11-14T05:13:35.657Z,101314.00
2022-11-14T05:16:04.004Z,101299.00
2022-11-14T05:18:33.503Z,101304.00
2022-11-14T05:21:02.400Z,101297.00
2022-11-14T05:23:31.535Z,101303.00
2022-11-14T05:26:16.832Z,101303.00
2022-11-14T05:28:44.263Z,101299.00
2022-11-14T05:31:15.707Z,101300.00
2022-11-14T05:33:44.750Z,101304.00
2022-11-14T05:36:17.779Z,101293.00
2022-11-14T05:38:45.349Z,101297.00
2022-11-14T05:41:16.577Z,101291.00
2022-11-14T05:43:45.329Z,101297.00
2022-11-14T05:46:17.027Z,101289.00
2022-11-14T05:48:45.728Z,101292.00
2022-11-14T05:51:14.209Z,101292.00
2022-11-14T05:53:42.195Z,101296.00
2022-11-14T05:56:14.554Z,101290.00
2022-11-14T05:58:43.926Z,101290.00
2022-11-14T06:01:18.074Z,101296.00
2022-11-14T06:03:48.748Z,101294.00
2022-11-14T06:06:22.453Z,101290.00
2022-11-14T06:08:51.266Z,101294.00
2022-11-14T06:11:21.459Z,101293.00
2022-11-14T06:13:49.422Z,101291.00
2022-11-14T06:16:19.738Z,101295.00
2022-11-14T06:18:47.592Z,101301.00
2022-11-14T06:21:18.834Z,101300.00
2022-11-14T06:23:47.397Z,101296.00
2022-11-14T06:26:27.711Z,101309.00
2022-11-14T06:28:56.142Z,101300.00
2022-11-14T06:31:25.659Z,101299.00
2022-11-14T06:33:53.221Z,101305.00
2022-11-14T06:36:21.477Z,101291.00
2022-11-14T06:38:50.100Z,101309.00
2022-11-14T06:41:23.996Z,101304.00
2022-11-14T06:43:56.185Z,101305.00
2022-11-14T06:46:24.115Z,101306.00
2022-11-14T06:48:52.902Z,101299.00
2022-11-14T06:51:21.955Z,101318.00
2022-11-14T06:53:50.511Z,101307.00
2022-11-14T06:56:20.654Z,101301.00
2022-11-14T06:58:50.268Z,101311.00
2022-11-14T07:01:24.589Z,101305.00
2022-11-14T07:03:53.270Z,101300.00
2022-11-14T07:06:25.497Z,101305.00
2022-11-14T07:08:54.734Z,101303.00
2022-11-14T07:11:29.059Z,101307.00
2022-11-14T07:13:59.321Z,101308.00
2022-11-14T07:30:04.165Z,101307.00
2022-11-14T07:32:31.989Z,101299.00
2022-11-14T07:35:02.521Z,101299.00
2022-11-14T07:37:30.707Z,101303.00
2022-11-14T07:39:59.754Z,101298.00
2022-11-14T07:42:30.673Z,101301.00
2022-11-14T07:44:58.460Z,101304.00
2022-11-14T07:47:28.364Z,101295.00
2022-11-14T07:49:58.023Z,101293.00
2022-11-14T07:52:26.935Z,101285.00
2022-11-14T07:54:54.790Z,101288.00
2022-11-14T07:57:25.427Z,101288.00
2022-11-14T07:59:53.428Z,101278.00
2022-11-14T08:02:21.821Z,101281.00
2022-11-14T08:04:50.351Z,101278.00
2022-11-14T08:07:18.052Z,101279.00
2022-11-14T08:09:46.301Z,101270.00
2022-11-14T08:12:14.407Z,101274.00
2022-11-14T08:14:43.764Z,101269.00
2022-11-14T08:17:12.391Z,101266.00
2022-11-14T08:19:40.572Z,101266.00
2022-11-14T08:22:08.448Z,101266.00
2022-11-14T08:24:36.022Z,101253.00
2022-11-14T08:27:03.694Z,101266.00
2022-11-14T08:29:31.813Z,101257.00
2022-11-14T08:32:00.375Z,101256.00
2022-11-14T08:34:29.429Z,101268.00
2022-11-14T08:36:58.111Z,101252.00
2022-11-14T08:39:25.959Z,101253.00
2022-11-14T08:41:54.859Z,101247.00
2022-11-14T08:44:25.963Z,101241.00
2022-11-14T08:46:54.671Z,101244.00
2022-11-14T08:49:23.546Z,101246.00
2022-11-14T08:51:54.477Z,101245.00
2022-11-14T08:54:22.138Z,101246.00
2022-11-14T08:56:52.239Z,101244.00
2022-11-14T08:59:20.563Z,101250.00
2022-11-14T09:01:48.763Z,101238.00
2022-11-14T09:04:17.522Z,101234.00
2022-11-14T09:06:46.850Z,101226.00
2022-11-14T09:09:15.869Z,101226.00
2022-11-14T09:11:43.850Z,101235.00
2022-11-14T09:14:11.874Z,101231.00
2022-11-14T09:16:40.841Z,101239.00
2022-11-14T09:19:08.873Z,101236.00
2022-11-14T09:21:38.478Z,101235.00
2022-11-14T09:24:08.539Z,101221.00
2022-11-14T09:26:36.777Z,101235.00
2022-11-14T09:29:06.699Z,101226.00
2022-11-14T09:31:34.617Z,101220.00
2022-11-14T09:34:02.271Z,101227.00
2022-11-14T09:36:29.534Z,101222.00
2022-11-14T09:38:58.625Z,101200.00
2022-11-14T09:41:33.375Z,101207.00
2022-11-14T09:44:46.019Z,101211.00
2022-11-14T09:47:22.769Z,101210.00
2022-11-14T09:50:00.599Z,101205.00
2022-11-14T09:52:45.456Z,101198.00
2022-11-14T09:55:22.919Z,101189.00
2022-11-14T09:57:50.632Z,101195.00
2022-11-14T10:00:26.827Z,101190.00
2022-11-14T10:03:25.270Z,101185.00
2022-11-14T10:06:24.291Z,101199.00
2022-11-14T10:09:11.190Z,101192.00
2022-11-14T10:11:51.795Z,101194.00
2022-11-14T10:14:31.460Z,101189.00
2022-11-14T10:17:36.695Z,101185.00
2022-11-14T10:20:18.615Z,101178.00
2022-11-14T10:23:33.426Z,101177.00
2022-11-14T10:26:31.239Z,101169.00
2022-11-14T10:29:27.756Z,101118.00
2022-11-14T10:32:17.425Z,101164.00
2022-11-14T10:35:05.827Z,101159.00
2022-11-14T10:38:10.780Z,101166.00
2022-11-14T10:40:54.883Z,101153.00
2022-11-14T10:44:02.959Z,101157.00
2022-11-14T10:46:54.923Z,101145.00
2022-11-14T10:49:25.961Z,101152.00
2022-11-14T10:52:10.553Z,101149.00
2022-11-14T10:55:00.355Z,101144.00
2022-11-14T10:57:30.864Z,101145.00
2022-11-14T10:59:58.459Z,101144.00
2022-11-14T11:02:26.151Z,101138.00
2022-11-14T11:04:54.737Z,101131.00
2022-11-14T11:07:44.744Z,101126.00
2022-11-14T11:10:43.233Z,101126.00
2022-11-14T11:13:33.104Z,101121.00
2022-11-14T11:16:04.555Z,101116.00
2022-11-14T11:18:37.064Z,101117.00
2022-11-14T11:21:14.763Z,101112.00
2022-11-14T11:23:59.514Z,101103.00
2022-11-14T11:26:32.965Z,101105.00
2022-11-14T11:29:13.889Z,101102.00
2022-11-14T11:31:58.536Z,101099.00
2022-11-14T11:34:33.900Z,101088.00
2022-11-14T11:37:23.183Z,101087.00
2022-11-14T11:39:57.983Z,101088.00
2022-11-14T11:43:36.793Z,101082.00
2022-11-14T11:45:42.245Z,101085.00
2022-11-14T11:48:22.997Z,101079.00
2022-11-14T11:50:51.017Z,101076.00
2022-11-14T11:53:39.766Z,101070.00
2022-11-14T11:56:25.241Z,101065.00
2022-11-14T11:59:21.607Z,101065.00
2022-11-14T12:01:51.732Z,101073.00
2022-11-14T12:04:19.514Z,101076.00
2022-11-14T12:07:13.300Z,101075.00
2022-11-14T12:10:09.243Z,101068.00
2022-11-14T12:13:04.539Z,101080.00
2022-11-14T12:16:13.064Z,101075.00
2022-11-14T12:18:56.949Z,101071.00
2022-11-14T12:21:58.947Z,101069.00
2022-11-14T12:25:26.540Z,101074.00
2022-11-14T12:28:48.623Z,101066.00
2022-11-14T12:31:20.071Z,101058.00
2022-11-14T12:34:26.749Z,101060.00
2022-11-14T12:36:55.781Z,101058.00
2022-11-14T12:39:30.516Z,101054.00
2022-11-14T12:42:15.148Z,101042.00
2022-11-14T12:44:44.161Z,101032.00
2022-11-14T12:47:19.560Z,101028.00
2022-11-14T12:49:52.830Z,101031.00
2022-11-14T12:52:45.777Z,101023.00
2022-11-14T12:55:19.491Z,101030.00
2022-11-14T12:58:09.197Z,101032.00
2022-11-14T13:00:50.873Z,101022.00
2022-11-14T13:03:43.995Z,101029.00
2022-11-14T13:06:56.370Z,101034.00
2022-11-14T13:09:35.573Z,101026.00
2022-11-14T13:12:49.397Z,101021.00
2022-11-14T13:15:52.579Z,101017.00
2022-11-14T13:18:45.397Z,101013.00
2022-11-14T13:21:46.461Z,101011.00
2022-11-14T13:24:18.365Z,101009.00
2022-11-14T13:26:56.465Z,101008.00
2022-11-14T13:29:43.202Z,101009.00
2022-11-14T13:32:12.889Z,101016.00
2022-11-14T13:35:04.993Z,101017.00
2022-11-14T13:38:22.452Z,101014.00
2022-11-14T13:41:46.187Z,101000.00
2022-11-14T13:44:26.838Z,100999.00
2022-11-14T13:47:12.561Z,101004.00
2022-11-14T13:50:08.796Z,100997.00
2022-11-14T13:52:47.976Z,101001.00
2022-11-14T13:55:36.978Z,100991.00
2022-11-14T13:58:56.105Z,100989.00
2022-11-14T14:02:16.037Z,100993.00
2022-11-14T14:04:48.976Z,100987.00
2022-11-14T14:07:54.886Z,100981.00
2022-11-14T14:11:09.690Z,100982.00
2022-11-14T14:13:56.545Z,100972.00
2022-11-14T14:17:21.448Z,100968.00
2022-11-14T14:20:17.071Z,100962.00
2022-11-14T14:23:03.096Z,100957.00
2022-11-14T14:25:52.546Z,100957.00
2022-11-14T14:28:57.612Z,100952.00
2022-11-14T14:31:31.707Z,100954.00
2022-11-14T14:34:01.145Z,100962.00
2022-11-14T14:36:31.766Z,100946.00
2022-11-14T14:39:23.114Z,100941.00
2022-11-14T14:41:56.729Z,100948.00
2022-11-14T14:44:32.260Z,100944.00
2022-11-14T14:47:00.312Z,100936.00
2022-11-14T14:49:37.181Z,100936.00
2022-11-14T14:52:33.793Z,100945.00
2022-11-14T14:55:03.204Z,100935.00
2022-11-14T14:57:32.364Z,100932.00
2022-11-14T15:00:20.786Z,100922.00
2022-11-14T15:02:51.055Z,100924.00
2022-11-14T15:05:31.466Z,100931.00
2022-11-14T15:08:01.475Z,100922.00
2022-11-14T15:10:32.615Z,100925.00
2022-11-14T15:13:00.820Z,100920.00
2022-11-14T15:15:29.408Z,100920.00
2022-11-14T15:31:24.554Z,100928.00
2022-11-14T15:34:27.261Z,100929.00
2022-11-14T15:37:16.476Z,100930.00
2022-11-14T15:39:46.189Z,100921.00
2022-11-14T15:42:26.651Z,100921.00
2022-11-14T15:44:56.527Z,100917.00
2022-11-14T15:47:33.713Z,100914.00
2022-11-14T15:50:13.207Z,100917.00
2022-11-14T15:52:59.657Z,100915.00
2022-11-14T15:55:27.686Z,100904.00
2022-11-14T15:58:21.444Z,100888.00
2022-11-14T16:00:52.597Z,100901.00
2022-11-14T16:03:23.334Z,100901.00
2022-11-14T16:05:51.192Z,100898.00
2022-11-14T16:08:18.651Z,100894.00
2022-11-14T16:10:47.208Z,100895.00
2022-11-14T16:13:15.815Z,100886.00
2022-11-14T16:15:43.756Z,100890.00
2022-11-14T16:18:13.740Z,100887.00
2022-11-14T16:20:42.020Z,100885.00
2022-11-14T16:23:14.969Z,100890.00
2022-11-14T16:25:43.285Z,100890.00
2022-11-14T16:28:11.650Z,100893.00
2022-11-14T16:30:39.252Z,100883.00
2022-11-14T16:33:08.611Z,100890.00
2022-11-14T16:35:36.048Z,100896.00
2022-11-14T16:38:05.152Z,100876.00
2022-11-14T16:40:33.470Z,100868.00
2022-11-14T16:43:01.317Z,100880.00
2022-11-14T16:45:29.724Z,100881.00
2022-11-14T16:47:57.325Z,100880.00
2022-11-14T16:50:25.926Z,100882.00
2022-11-14T16:52:53.388Z,100871.00
2022-11-14T16:55:20.652Z,100871.00
2022-11-14T16:57:49.696Z,100873.00
2022-11-14T17:00:18.823Z,100863.00
2022-11-14T17:02:47.957Z,100864.00
2022-11-14T17:05:18.927Z,100864.00
2022-11-14T17:07:47.074Z,100863.00
2022-11-14T17:10:15.115Z,100857.00
2022-11-14T17:12:42.519Z,100850.00
2022-11-14T17:15:10.834Z,100847.00
2022-11-14T17:17:38.395Z,100846.00
2022-11-14T17:20:08.296Z,100836.00
2022-11-14T17:22:36.705Z,100839.00
2022-11-14T17:25:04.679Z,100844.00
2022-11-14T17:27:32.235Z,100839.00
2022-11-14T17:30:00.275Z,100839.00
2022-11-14T17:32:29.509Z,100837.00
2022-11-14T17:34:58.783Z,100836.00
2022-11-14T17:37:27.549Z,100845.00
2022-11-14T17:39:55.875Z,100836.00
2022-11-14T17:42:24.422Z,100828.00
2022-11-14T17:44:53.106Z,100837.00
2022-11-14T17:47:21.329Z,100838.00
2022-11-14T17:49:48.752Z,100843.00
2022-11-14T17:52:18.915Z,100823.00
2022-11-14T17:54:47.194Z,100822.00
2022-11-14T17:57:16.580Z,100820.00
2022-11-14T17:59:47.703Z,100810.00
2022-11-14T18:02:17.872Z,100823.00
2022-11-14T18:04:47.995Z,100815.00
2022-11-14T18:07:16.140Z,100815.00
2022-11-14T18:09:44.863Z,100816.00
2022-11-14T18:12:12.964Z,100814.00
2022-11-14T18:14:41.062Z,100813.00
2022-11-14T18:17:13.145Z,100813.00
2022-11-14T18:19:43.096Z,100810.00
2022-11-14T18:22:11.904Z,100807.00
2022-11-14T18:24:42.435Z,100797.00
2022-11-14T18:27:12.094Z,100790.00
2022-11-14T18:29:40.081Z,100771.00
2022-11-14T18:32:08.612Z,100794.00
2022-11-14T18:34:37.277Z,100791.00
2022-11-14T18:37:05.642Z,100785.00
2022-11-14T18:39:33.756Z,100780.00
2022-11-14T18:42:02.309Z,100787.00
2022-11-14T18:44:30.958Z,100786.00
2022-11-14T18:46:58.748Z,100771.00
2022-11-14T18:49:28.861Z,100778.00
2022-11-14T18:52:01.042Z,100760.00
2022-11-14T18:54:32.361Z,100778.00
2022-11-14T18:57:00.873Z,100773.00
2022-11-14T18:59:29.018Z,100773.00
2022-11-14T19:01:58.752Z,100772.00
2022-11-14T19:04:26.545Z,100769.00
2022-11-14T19:06:54.419Z,100767.00
2022-11-14T19:09:24.114Z,100765.00
2022-11-14T19:12:10.237Z,100767.00
2022-11-14T19:14:37.822Z,100775.00
2022-11-14T19:17:07.369Z,100773.00
2022-11-14T19:19:35.523Z,100776.00
2022-11-14T19:22:04.251Z,100767.00
2022-11-14T19:24:35.390Z,100772.00
2022-11-14T19:27:04.500Z,100765.00
2022-11-14T19:29:33.170Z,100762.00
2022-11-14T19:32:01.057Z,100759.00
2022-11-14T19:34:29.745Z,100749.00
2022-11-14T19:37:00.456Z,100738.00
2022-11-14T19:39:29.836Z,100744.00
2022-11-14T19:41:59.989Z,100738.00
2022-11-14T19:44:28.318Z,100741.00
2022-11-14T19:46:57.427Z,100729.00
2022-11-14T19:49:25.144Z,100731.00
2022-11-14T19:51:52.818Z,100727.00
2022-11-14T19:54:22.274Z,100719.00
2022-11-14T19:56:50.997Z,100728.00
2022-11-14T19:59:24.024Z,100734.00
2022-11-14T20:01:55.864Z,100721.00
2022-11-14T20:04:23.883Z,100721.00
2022-11-14T20:06:51.759Z,100713.00
2022-11-14T20:09:20.814Z,100725.00
2022-11-14T20:11:48.512Z,100710.00
2022-11-14T20:14:16.604Z,100710.00
2022-11-14T20:16:46.199Z,100706.00
2022-11-14T20:19:14.224Z,100711.00
2022-11-14T20:21:43.970Z,100713.00
2022-11-14T20:24:17.947Z,100721.00
2022-11-14T20:26:45.969Z,100711.00
2022-11-14T20:29:13.783Z,100718.00
2022-11-14T20:31:41.779Z,100717.00
2022-11-14T20:34:11.806Z,100708.00
2022-11-14T20:37:08.859Z,100707.00
2022-11-14T20:39:27.443Z,100695.00
2022-11-14T20:41:55.893Z,100694.00
2022-11-14T20:44:23.584Z,100686.00
2022-11-14T20:46:51.115Z,100689.00
2022-11-14T20:49:19.072Z,100683.00
2022-11-14T20:51:49.034Z,100674.00
2022-11-14T20:54:17.359Z,100685.00
2022-11-14T20:56:45.483Z,100676.00
2022-11-14T20:59:13.328Z,100676.00
2022-11-14T21:01:43.989Z,100669.00
2022-11-14T21:04:12.666Z,100648.00
2022-11-14T21:06:40.715Z,100658.00
2022-11-14T21:09:10.588Z,100658.00
2022-11-14T21:11:39.398Z,100667.00
2022-11-14T21:14:07.425Z,100656.00
2022-11-14T21:16:39.092Z,100659.00
2022-11-14T21:19:07.406Z,100651.00
2022-11-14T21:21:37.909Z,100651.00
2022-11-14T21:24:06.971Z,100655.00
2022-11-14T21:26:38.658Z,100658.00
2022-11-14T21:29:11.236Z,100657.00
2022-11-14T21:31:49.541Z,100655.00
2022-11-14T21:34:19.275Z,100658.00
2022-11-14T21:36:48.703Z,100645.00
2022-11-14T21:39:17.544Z,100661.00
2022-11-14T21:41:48.881Z,100642.00
2022-11-14T21:44:18.512Z,100652.00
2022-11-14T21:46:50.024Z,100641.00
2022-11-14T21:49:17.864Z,100638.00
2022-11-14T21:51:46.220Z,100629.00
2022-11-14T21:54:15.440Z,100628.00
2022-11-14T21:56:43.175Z,100619.00
2022-11-14T21:59:19.071Z,100621.00
2022-11-14T22:02:08.536Z,100609.00
2022-11-14T22:04:37.251Z,100614.00
2022-11-14T22:07:09.136Z,100607.00
2022-11-14T22:09:43.984Z,100613.00
2022-11-14T22:12:13.369Z,100605.00
2022-11-14T22:14:41.136Z,100605.00
2022-11-14T22:17:08.580Z,100603.00
2022-11-14T22:19:37.956Z,100600.00
2022-11-14T22:22:06.048Z,100610.00
2022-11-14T22:24:34.155Z,100609.00
2022-11-14T22:27:02.038Z,100599.00
2022-11-14T22:29:29.227Z,100603.00
2022-11-14T22:31:57.516Z,100609.00
2022-11-14T22:34:24.969Z,100598.00
2022-11-14T22:36:52.790Z,100591.00
2022-11-14T22:39:21.506Z,100596.00
2022-11-14T22:41:49.183Z,100594.00
2022-11-14T22:44:17.066Z,100594.00
2022-11-14T22:46:44.612Z,100600.00
2022-11-14T22:49:15.025Z,100594.00
2022-11-14T22:51:44.604Z,100596.00
2022-11-14T22:54:14.046Z,100589.00
2022-11-14T22:56:41.613Z,100590.00
2022-11-14T22:59:09.992Z,100591.00
2022-11-14T23:01:38.255Z,100576.00
2022-11-14T23:04:07.309Z,100578.00
2022-11-14T23:06:35.232Z,100573.00
2022-11-14T23:09:04.605Z,100576.00
2022-11-14T23:11:33.559Z,100577.00
2022-11-14T23:14:03.477Z,100571.00
2022-11-14T23:16:33.835Z,100564.00
2022-11-14T23:19:04.381Z,100560.00
2022-11-14T23:21:36.483Z,100555.00
2022-11-14T23:24:11.401Z,100556.00
2022-11-14T23:26:39.701Z,100558.00
2022-11-14T23:29:08.720Z,100551.00
2022-11-14T23:31:37.120Z,100549.00
2022-11-14T23:34:04.871Z,100551.00
2022-11-14T23:36:32.147Z,100545.00
2022-11-14T23:38:59.787Z,100538.00
2022-11-14T23:41:27.598Z,100543.00
2022-11-14T23:43:55.662Z,100536.00
2022-11-14T23:46:23.362Z,100538.00
2022-11-14T23:48:52.033Z,100533.00
2022-11-14T23:51:19.686Z,100527.00
2022-11-14T23:53:47.612Z,100531.00
2022-11-14T23:56:18.515Z,100537.00
2022-11-14T23:58:46.560Z,100533.00
